• Join FlightAware (Why Join?)
  • Login
  • US Flag 
07:47PM EDT


 

Airport Tracker/Info


-or-


 

Live Flight TrackerFlight Track Log ✈ UAL4401 ✈ 22-Apr-2013 ✈ KTUS - KIAH

Flight Track Log - Related Links

Times and Time Zones

All times are in EDT time to prevent confusion due to time zone crossing. See the UAL4401 flight status page for this flight to view local times or setup timezone preferences in your user account.

Time Position Orientation Groundspeed Altitude Reporting Facility
EDT Latitude Longitude Course Direction KTS MPH feet Rate Location/Type
04:11PM 32.1233 -110.9494 90° East 177 204 3,100  Level Albuquerque Center
04:12PM 32.1486 -110.9806 314° West 187 215 4,400 2,100 Climbing Albuquerque Center
04:13PM 32.1906 -111.0042 335° Northwest 212 244 6,300 2,100 Climbing Albuquerque Center
04:14PM 32.2172 -110.9364 65° Northeast 271 312 8,300 2,040 Climbing Albuquerque Center
04:15PM 32.3120 -110.7225 84° East  Level FlightAware Approximate
04:15PM 32.2094 -110.8400 95° East 285 328 10,600  Level Albuquerque Center
04:16PM 32.3167 -110.5763 90° East  Level FlightAware Approximate
04:16PM 32.2017 -110.7381 95° East 306 352 12,200  Level Albuquerque Center
04:17PM 32.3167 -110.4297 90° East  Level FlightAware Approximate
04:17PM 32.1928 -110.6225 95° East 340 391 13,600  Level Albuquerque Center
04:18PM 32.1825 -110.4706 95° East 379 436 15,600 1,620 Climbing Albuquerque Center
04:19PM 32.1733 -110.3431 95° East 389 448 17,000 1,200 Climbing Albuquerque Center
04:20PM 32.1653 -110.2236 95° East 396 456 18,200 1,680 Climbing Albuquerque Center
04:21PM 32.1539 -110.0647 95° East 407 468 20,500 1,980 Climbing Albuquerque Center
04:22PM 32.1419 -109.9311 96° East 414 476 22,400 1,920 Climbing Albuquerque Center
04:23PM 32.1311 -109.8011 96° East 408 470 24,500 1,920 Climbing Albuquerque Center
04:24PM 32.1228 -109.6758 94° East 400 460 26,400 1,560 Climbing Albuquerque Center
04:25PM 32.1131 -109.5506 95° East 394 453 27,800 1,500 Climbing Albuquerque Center
04:26PM 32.1000 -109.3925 96° East 401 461 29,500 1,500 Climbing Albuquerque Center
04:27PM 32.0900 -109.2603 95° East 406 467 30,900 1,320 Climbing Albuquerque Center
04:28PM 32.0786 -109.1292 96° East 407 468 32,300 960 Climbing Albuquerque Center
04:29PM 32.0689 -108.9978 95° East 408 470 33,000 300 Climbing Albuquerque Center
04:30PM 32.0558 -108.8550 96° East 434 499 33,000  Level Albuquerque Center
04:31PM 32.0406 -108.6700 96° East 471 542 33,000  Level Albuquerque Center
04:32PM 32.0281 -108.5103 95° East 488 562 33,000  Level Albuquerque Center
04:33PM 32.0131 -108.3478 96° East 500 575 33,000  Level Albuquerque Center
04:34PM 31.9989 -108.1878 96° East 500 575 33,000  Level Albuquerque Center
04:35PM 31.9836 -108.0078 96° East 502 578 33,000  Level Albuquerque Center
04:36PM 31.9683 -107.8447 96° East 503 579 33,000  Level Albuquerque Center
04:37PM 31.9536 -107.6817 96° East 504 580 33,000  Level Albuquerque Center
04:39PM 31.9392 -107.5189 96° East 505 581 33,000  Level Albuquerque Center
04:40PM 31.9211 -107.3233 96° East 505 581 33,000  Level Albuquerque Center
04:41PM 31.9056 -107.1619 96° East 502 578 33,000  Level Albuquerque Center
04:42PM 31.8892 -106.9997 97° East 504 580 33,000  Level Albuquerque Center
04:43PM 31.8731 -106.8361 97° East 508 585 33,000  Level Albuquerque Center
04:44PM 31.8564 -106.6722 97° East 509 586 33,000  Level Albuquerque Center
04:45PM 31.8347 -106.4761 97° East 507 583 33,000  Level Albuquerque Center
04:46PM 31.8169 -106.3117 97° East 508 585 33,000  Level Albuquerque Center
04:47PM 31.7825 -106.1500 104° East 511 588 33,000  Level Albuquerque Center
04:48PM 31.7425 -105.9908 106° East 508 585 33,000 -60 Level Albuquerque Center
04:49PM 31.7031 -105.8314 106° East 509 586 32,900  Descending Albuquerque Center
04:50PM 31.6622 -105.6714 107° East 510 587 33,000  Climbing Albuquerque Center
04:51PM 31.6222 -105.5119 106° East 509 586 33,000  Level Albuquerque Center
04:52PM 31.5814 -105.3517 107° East 511 588 33,000  Level Albuquerque Center
04:53PM 31.5331 -105.1597 106° East 510 587 33,000  Level Albuquerque Center
04:54PM 31.4925 -104.9989 106° East 511 588 33,000  Level Albuquerque Center
04:55PM 31.4503 -104.8386 107° East 512 589 33,000  Level Albuquerque Center
04:56PM 31.4100 -104.6775 106° East 512 589 33,000  Level Albuquerque Center
04:57PM 31.3681 -104.5169 107° East 513 590 33,000  Level Albuquerque Center
04:58PM 31.3272 -104.3578 107° East 512 589 33,000  Level Albuquerque Center
04:59PM 31.2839 -104.1975 108° East 514 592 33,000  Level Albuquerque Center
05:00PM 31.2417 -104.0375 107° East 516 594 33,000  Level Albuquerque Center
05:01PM 31.1911 -103.8444 107° East 519 597 33,000  Level Albuquerque Center
05:02PM 31.1436 -103.6794 109° East 519 597 33,000  Level Albuquerque Center
05:03PM 31.0989 -103.5192 108° East 521 600 33,000  Level Albuquerque Center
05:04PM 31.0553 -103.3586 108° East 521 600 33,000  Level Albuquerque Center
05:05PM 31.0106 -103.1983 108° East 522 601 33,000  Level Albuquerque Center
05:06PM 30.9692 -103.0425 107° East 512 589 33,000  Level Albuquerque Center
05:07PM 30.9261 -102.8842 108° East 514 592 33,000  Level Albuquerque Center
05:08PM 30.8781 -102.6936 106° East 516 594 33,000  Level Albuquerque Center
05:09PM 30.8369 -102.5358 107° East 514 592 33,000  Level Albuquerque Center
05:10PM 30.7953 -102.3792 107° East 514 592 33,000  Level Albuquerque Center
05:11PM 30.7542 -102.2217 107° East 514 592 33,000  Level Albuquerque Center
05:12PM 30.7125 -102.0644 107° East 514 592 33,000  Level Albuquerque Center
05:14PM 30.6697 -101.9064 107° East 516 594 33,000  Level Albuquerque Center
05:15PM 30.5869 -101.5906 107° East 512 589 33,000  Level Houston Center
05:16PM 30.5417 -101.4183 107° East 514 592 33,000  Level Houston Center
05:17PM 30.4972 -101.2594 108° East 518 596 33,000  Level Houston Center
05:19PM 30.4525 -101.1017 108° East 517 595 33,000  Level Houston Center
05:20PM 30.4106 -100.9422 107° East 517 595 33,000  Level Houston Center
05:21PM 30.3667 -100.7836 108° East 519 597 33,000  Level Houston Center
05:22PM 30.3233 -100.6250 108° East 515 593 33,000  Level Houston Center
05:23PM 30.3067 -100.4281 96° East 519 597 33,000  Level Houston Center
05:24PM 30.3281 -100.2619 81° East 516 594 33,000  Level Houston Center
05:25PM 30.3497 -100.0972 81° East 512 589 33,000  Level Houston Center
05:26PM 30.3139 -99.9375 105° East 514 592 33,000  Level Houston Center
05:27PM 30.2389 -99.7947 121° Southeast 513 590 33,000  Level Houston Center
05:28PM 30.1614 -99.6547 123° Southeast 515 593 33,000  Level Houston Center
05:29PM 30.0847 -99.5147 122° Southeast 513 590 33,000  Level Houston Center
05:30PM 29.9947 -99.3489 122° Southeast 514 592 33,000  Level Houston Center
05:31PM 29.9189 -99.2044 121° Southeast 518 596 33,000  Level Houston Center
05:32PM 29.8586 -99.0428 113° Southeast 520 598 33,000  Level Houston Center
05:33PM 29.8058 -98.8986 113° Southeast 520 598 33,000  Level Houston Center
05:34PM 29.7406 -98.7239 113° Southeast 524 603 33,000  Level Houston Center
05:35PM 29.6844 -98.5714 113° Southeast 519 597 33,000  Level Houston Center
05:36PM 29.6464 -98.4081 105° East 534 615 33,000  Level Houston Center
05:37PM 29.6478 -98.2269 89° East 523 602 33,000  Level Houston Center
05:38PM 29.6497 -98.0589 89° East 526 605 33,000  Level Houston Center
05:39PM 29.6519 -97.8789 89° East 524 603 33,000  Level Houston Center
05:40PM 29.6544 -97.7317 89° East 530 610 33,000 -480 Level Houston Center
05:41PM 29.6561 -97.5661 89° East 520 598 32,100 -1,440 Descending Houston Center
05:42PM 29.6053 -97.3828 108° East 521 600 30,100 -2,100 Descending Houston Center
05:43PM 29.5311 -97.2525 123° Southeast 493 567 27,800 -2,220 Descending Houston Center
05:44PM 29.4597 -97.1250 123° Southeast 479 551 25,600 -1,860 Descending Houston Center
05:45PM 29.3861 -96.9969 123° Southeast 483 556 24,000 -1,620 Descending Houston Center
05:46PM 29.3083 -96.8650 124° Southeast 478 550 22,300 -2,160 Descending Houston Center
05:47PM 29.2506 -96.7333 117° Southeast 450 518 19,600 -2,520 Descending Houston Center
05:49PM 29.2242 -96.6092 104° East 412 474 17,200 -2,040 Descending Houston Center
05:50PM 29.2622 -96.4972 69° East 388 447 15,400 -1,680 Descending Houston Center
05:51PM 29.3478 -96.3961 46° Northeast 371 427 13,800 -1,320 Descending Houston Center
05:52PM 29.4178 -96.3153 45° Northeast 377 434 12,900 -1,200 Descending Houston Center
05:53PM 29.4903 -96.2306 45° Northeast 375 432 11,500 -1,380 Descending Houston Center
05:54PM 29.5578 -96.1389 50° Northeast 346 398 10,000 -840 Descending Houston Center
05:55PM 29.6047 -96.0494 59° Northeast 337 388 9,900 -360 Descending Houston Center
05:56PM 29.6517 -95.9603 59° Northeast 293 337 9,300 -900 Descending Houston Center
05:57PM 29.7272 -95.9131 28° Northeast 300 345 8,100 -1,080 Descending Houston Center
05:58PM 29.8061 -95.8689 26° Northeast 287 330 7,000 -540 Descending Houston Center
05:59PM 29.8692 -95.8342 26° Northeast 249 287 7,000 -300 Level Houston Center
06:00PM 29.9372 -95.7950 27° Northeast 251 289 6,400 -780 Descending Houston Center
06:01PM 29.9894 -95.7453 40° Northeast 241 277 5,400 -720 Descending Houston Center
06:02PM 29.9919 -95.6794 87° East 237 273 5,000 -600 Descending Houston Center
06:03PM 29.9931 -95.6194 89° East 179 206 4,300 -840 Descending Houston Center
06:04PM 29.9917 -95.5594 92° East 171 197 3,500 -900 Descending Houston Center
06:05PM 29.9928 -95.5014 89° East 180 207 2,500 -1,020 Descending Houston Center